createdAt,value
2018-07-13T00:00:09.771Z,101619.22
2018-07-13T00:02:38.718Z,101618.02
2018-07-13T00:05:07.628Z,101624.65
2018-07-13T00:07:36.756Z,101625.75
2018-07-13T00:10:05.704Z,101621.58
2018-07-13T00:12:34.779Z,101624.28
2018-07-13T00:15:07.413Z,101631.38
2018-07-13T00:17:36.323Z,101629.09
2018-07-13T00:20:05.666Z,101630.33
2018-07-13T00:22:34.811Z,101627.68
2018-07-13T00:25:03.859Z,101629.07
2018-07-13T00:27:32.769Z,101632.31
2018-07-13T00:30:01.790Z,101629.13
2018-07-13T00:32:30.823Z,101631.48
2018-07-13T00:35:00.326Z,101634.73
2018-07-13T00:37:29.231Z,101628.91
2018-07-13T00:39:58.134Z,101629.27
2018-07-13T00:42:27.056Z,101629.53
2018-07-13T00:44:55.958Z,101628.64
2018-07-13T00:47:24.922Z,101632.47
2018-07-13T00:49:53.939Z,101635.17
2018-07-13T00:52:22.830Z,101638.48
2018-07-13T00:54:51.781Z,101636.27
2018-07-13T00:57:20.712Z,101639.78
2018-07-13T00:59:49.624Z,101641.64
2018-07-13T01:02:18.530Z,101645.44
2018-07-13T01:04:47.415Z,101640.03
2018-07-13T01:07:16.351Z,101647.41
2018-07-13T01:09:45.255Z,101646.24
2018-07-13T01:12:14.224Z,101650.63
2018-07-13T01:14:43.119Z,101643.97
2018-07-13T01:17:12.015Z,101640.66
2018-07-13T01:19:40.898Z,101634.39
2018-07-13T01:22:09.842Z,101640.89
2018-07-13T01:24:38.756Z,101639.30
2018-07-13T01:27:07.677Z,101637.09
2018-07-13T01:29:36.603Z,101648.03
2018-07-13T01:32:05.586Z,101644.94
2018-07-13T01:34:34.728Z,101648.77
2018-07-13T01:37:03.644Z,101652.20
2018-07-13T01:39:32.559Z,101647.64
2018-07-13T01:42:01.660Z,101650.95
2018-07-13T01:44:31.191Z,101654.97
2018-07-13T01:47:00.302Z,101651.30
2018-07-13T01:49:29.479Z,101655.19
2018-07-13T01:51:58.407Z,101652.59
2018-07-13T01:54:27.299Z,101650.02
2018-07-13T01:56:56.249Z,101652.19
2018-07-13T01:59:25.197Z,101652.95
2018-07-13T02:01:54.143Z,101648.36
2018-07-13T02:04:23.031Z,101650.02
2018-07-13T02:06:51.962Z,101648.36
2018-07-13T02:09:21.366Z,101654.58
2018-07-13T02:11:50.263Z,101651.01
2018-07-13T02:14:19.871Z,101659.11
2018-07-13T02:16:48.786Z,101658.30
2018-07-13T02:19:17.729Z,101658.00
2018-07-13T02:21:46.635Z,101654.69
2018-07-13T02:24:15.531Z,101654.39
2018-07-13T02:26:44.434Z,101655.13
2018-07-13T02:29:13.309Z,101651.95
2018-07-13T02:31:42.230Z,101653.61
2018-07-13T02:34:11.221Z,101650.00
2018-07-13T02:36:40.121Z,101651.58
2018-07-13T02:39:09.904Z,101644.77
2018-07-13T02:41:38.953Z,101651.88
2018-07-13T02:44:07.915Z,101656.77
2018-07-13T02:46:36.913Z,101651.46
2018-07-13T02:49:05.818Z,101659.71
2018-07-13T02:51:34.696Z,101658.52
2018-07-13T02:54:03.621Z,101661.84
2018-07-13T02:56:32.505Z,101666.31
2018-07-13T02:59:01.427Z,101664.14
2018-07-13T03:01:30.377Z,101665.54
2018-07-13T03:03:59.299Z,101668.77
2018-07-13T03:06:28.657Z,101666.31
2018-07-13T03:08:57.750Z,101669.54
2018-07-13T03:11:26.866Z,101671.63
2018-07-13T03:13:56.055Z,101669.16
2018-07-13T03:16:24.974Z,101671.88
2018-07-13T03:18:53.950Z,101672.95
2018-07-13T03:21:22.827Z,101673.66
2018-07-13T03:23:51.730Z,101682.59
2018-07-13T03:26:20.676Z,101687.73
2018-07-13T03:28:49.902Z,101687.48
2018-07-13T03:31:20.878Z,101693.48
2018-07-13T03:33:49.801Z,101690.67
2018-07-13T03:36:18.839Z,101692.33
2018-07-13T03:38:47.767Z,101689.05
2018-07-13T03:41:16.717Z,101688.45
2018-07-13T03:43:45.791Z,101696.91
2018-07-13T03:46:14.875Z,101696.91
2018-07-13T03:48:43.785Z,101695.81
2018-07-13T03:51:12.702Z,101701.84
2018-07-13T03:53:41.595Z,101700.78
2018-07-13T03:56:10.501Z,101694.95
2018-07-13T03:58:39.417Z,101698.73
2018-07-13T04:01:08.302Z,101699.14
2018-07-13T04:03:37.205Z,101694.05
2018-07-13T04:06:06.117Z,101696.81
2018-07-13T04:08:35.020Z,101700.09
2018-07-13T04:11:04.005Z,101700.98
2018-07-13T04:13:32.895Z,101698.48
2018-07-13T04:16:01.812Z,101697.67
2018-07-13T04:18:34.659Z,101700.19
2018-07-13T04:21:03.554Z,101697.92
2018-07-13T04:23:32.490Z,101698.98
2018-07-13T04:26:01.413Z,101703.71
2018-07-13T04:28:32.689Z,101695.63
2018-07-13T04:31:01.583Z,101706.34
2018-07-13T04:33:30.482Z,101703.71
2018-07-13T04:35:59.392Z,101697.22
2018-07-13T04:38:28.299Z,101703.21
2018-07-13T04:40:57.235Z,101704.27
2018-07-13T04:43:26.112Z,101702.87
2018-07-13T04:45:55.035Z,101698.27
2018-07-13T04:48:23.954Z,101699.89
2018-07-13T04:50:52.873Z,101705.12
2018-07-13T04:53:21.808Z,101703.16
2018-07-13T04:55:50.755Z,101705.34
2018-07-13T04:58:19.699Z,101716.22
2018-07-13T05:00:48.615Z,101713.31
2018-07-13T05:03:17.526Z,101711.53
2018-07-13T05:05:46.451Z,101711.58
2018-07-13T05:08:16.168Z,101710.52
2018-07-13T05:10:45.118Z,101710.88
2018-07-13T05:13:14.033Z,101706.84
2018-07-13T05:15:42.969Z,101713.98
2018-07-13T05:18:12.053Z,101705.81
2018-07-13T05:20:41.022Z,101710.92
2018-07-13T05:23:09.934Z,101709.48
2018-07-13T05:25:38.884Z,101705.66
2018-07-13T05:28:07.763Z,101704.80
2018-07-13T05:30:36.707Z,101706.55
2018-07-13T05:33:06.270Z,101706.50
2018-07-13T05:35:35.181Z,101714.50
2018-07-13T05:38:04.120Z,101718.08
2018-07-13T05:40:33.030Z,101713.34
2018-07-13T05:43:01.957Z,101716.89
2018-07-13T05:45:31.208Z,101723.04
2018-07-13T05:48:00.119Z,101720.67
2018-07-13T05:50:29.064Z,101728.04
2018-07-13T05:52:57.980Z,101731.69
2018-07-13T05:55:27.168Z,101719.78
2018-07-13T05:57:56.131Z,101730.03
2018-07-13T06:00:25.313Z,101732.00
2018-07-13T06:02:54.432Z,101738.23
2018-07-13T06:05:23.368Z,101733.94
2018-07-13T06:07:52.349Z,101731.89
2018-07-13T06:10:21.276Z,101731.47
2018-07-13T06:12:50.725Z,101738.25
2018-07-13T06:15:19.684Z,101740.16
2018-07-13T06:17:48.713Z,101736.20
2018-07-13T06:20:17.694Z,101740.77
2018-07-13T06:22:46.564Z,101744.58
2018-07-13T06:25:15.502Z,101738.33
2018-07-13T06:27:46.422Z,101739.52
2018-07-13T06:30:15.770Z,101734.84
2018-07-13T06:32:44.658Z,101734.07
2018-07-13T06:35:13.613Z,101727.27
2018-07-13T06:37:42.529Z,101731.75
2018-07-13T06:40:11.460Z,101731.83
2018-07-13T06:42:40.395Z,101738.10
2018-07-13T06:45:09.271Z,101732.36
2018-07-13T06:47:38.238Z,101739.09
2018-07-13T06:50:07.472Z,101734.94
2018-07-13T06:52:36.363Z,101733.86
2018-07-13T06:55:05.290Z,101740.30
2018-07-13T06:57:45.691Z,101734.22
2018-07-13T07:01:20.197Z,101745.75
2018-07-13T07:04:24.455Z,101738.80
2018-07-13T07:06:54.176Z,101751.14
2018-07-13T07:09:23.562Z,101746.72
2018-07-13T07:13:05.094Z,101748.22
2018-07-13T07:15:34.650Z,101755.95
2018-07-13T07:18:03.547Z,101747.44
2018-07-13T07:20:32.575Z,101751.17
2018-07-13T07:23:01.539Z,101754.22
2018-07-13T07:25:30.915Z,101748.02
2018-07-13T07:27:59.832Z,101747.01
2018-07-13T07:30:28.790Z,101752.60
2018-07-13T07:32:57.701Z,101747.14
2018-07-13T07:35:26.605Z,101745.35
2018-07-13T07:37:55.541Z,101749.70
2018-07-13T07:40:24.710Z,101752.76
2018-07-13T07:42:53.586Z,101747.63
2018-07-13T07:45:22.490Z,101741.52
2018-07-13T07:47:51.437Z,101746.55
2018-07-13T07:50:20.373Z,101745.45
2018-07-13T07:52:49.317Z,101743.56
2018-07-13T07:55:18.210Z,101741.75
2018-07-13T07:57:47.135Z,101744.48
2018-07-13T08:00:16.061Z,101746.28
2018-07-13T08:02:44.989Z,101741.94
2018-07-13T08:05:13.912Z,101748.66
2018-07-13T08:07:42.884Z,101754.80
2018-07-13T08:10:11.812Z,101754.04
2018-07-13T08:12:40.734Z,101750.00
2018-07-13T08:15:09.627Z,101745.87
2018-07-13T08:17:38.507Z,101750.06
2018-07-13T08:20:07.420Z,101748.80
2018-07-13T08:22:41.623Z,101743.22
2018-07-13T08:25:13.076Z,101749.06
2018-07-13T08:27:45.830Z,101743.00
2018-07-13T08:30:22.490Z,101741.42
2018-07-13T08:32:51.412Z,101741.73
2018-07-13T08:35:20.317Z,101747.17
2018-07-13T08:37:49.222Z,101742.21
2018-07-13T08:40:18.123Z,101736.59
2018-07-13T08:42:47.033Z,101743.17
2018-07-13T08:45:15.956Z,101737.42
2018-07-13T08:47:44.964Z,101741.01
2018-07-13T08:50:13.853Z,101741.03
2018-07-13T08:52:43.000Z,101743.58
2018-07-13T08:55:15.310Z,101740.58
2018-07-13T08:57:45.961Z,101741.41
2018-07-13T09:00:14.947Z,101743.35
2018-07-13T09:02:43.883Z,101739.50
2018-07-13T09:05:12.798Z,101741.73
2018-07-13T09:07:42.732Z,101740.66
2018-07-13T09:10:12.658Z,101741.16
2018-07-13T09:12:42.329Z,101741.49
2018-07-13T09:15:13.046Z,101742.72
2018-07-13T09:17:42.200Z,101737.56
2018-07-13T09:20:12.409Z,101740.67
2018-07-13T09:22:41.411Z,101735.84
2018-07-13T09:25:11.097Z,101739.66
2018-07-13T09:27:40.617Z,101740.51
2018-07-13T09:30:10.603Z,101735.08
2018-07-13T09:32:39.532Z,101739.20
2018-07-13T09:35:08.849Z,101739.80
2018-07-13T09:37:37.807Z,101734.95
2018-07-13T09:40:06.975Z,101738.45
2018-07-13T09:42:36.310Z,101726.44
2018-07-13T09:45:05.255Z,101734.66
2018-07-13T09:47:34.805Z,101735.74
2018-07-13T09:50:03.780Z,101735.51
2018-07-13T09:52:32.677Z,101736.61
2018-07-13T09:55:01.688Z,101737.14
2018-07-13T09:57:30.657Z,101737.18
2018-07-13T09:59:59.701Z,101736.92
2018-07-13T10:02:28.609Z,101736.14
2018-07-13T10:04:57.820Z,101733.72
2018-07-13T10:07:27.137Z,101736.46
2018-07-13T10:09:56.089Z,101730.20
2018-07-13T10:12:25.000Z,101732.13
2018-07-13T10:14:53.914Z,101733.21
2018-07-13T10:17:22.839Z,101735.45
2018-07-13T10:19:51.755Z,101734.91
2018-07-13T10:22:23.825Z,101722.88
2018-07-13T10:24:53.857Z,101723.16
2018-07-13T10:27:23.188Z,101719.58
2018-07-13T10:29:54.205Z,101720.95
2018-07-13T10:32:23.262Z,101722.90
2018-07-13T10:34:52.501Z,101715.24
2018-07-13T10:37:21.458Z,101719.08
2018-07-13T10:39:50.442Z,101724.28
2018-07-13T10:42:19.331Z,101720.76
2018-07-13T10:44:48.713Z,101717.18
2018-07-13T10:47:17.677Z,101727.05
2018-07-13T10:49:46.608Z,101724.30
2018-07-13T10:52:15.496Z,101719.64
2018-07-13T10:54:44.401Z,101722.66
2018-07-13T10:57:13.343Z,101719.91
2018-07-13T10:59:42.295Z,101717.16
2018-07-13T11:02:11.181Z,101718.28
2018-07-13T11:04:40.261Z,101719.08
2018-07-13T11:07:09.187Z,101720.45
2018-07-13T11:09:38.496Z,101717.70
2018-07-13T11:12:07.498Z,101721.23
2018-07-13T11:14:36.463Z,101711.87
2018-07-13T11:17:05.457Z,101711.34
2018-07-13T11:19:34.372Z,101711.30
2018-07-13T11:22:03.322Z,101708.52
2018-07-13T11:24:32.287Z,101706.31
2018-07-13T11:27:01.286Z,101705.80
2018-07-13T11:29:30.192Z,101709.11
2018-07-13T11:31:59.438Z,101705.27
2018-07-13T11:34:28.393Z,101696.72
2018-07-13T11:36:57.362Z,101697.28
2018-07-13T11:39:26.331Z,101691.13
2018-07-13T11:41:55.293Z,101691.88
2018-07-13T11:44:24.262Z,101688.03
2018-07-13T11:46:53.252Z,101690.21
2018-07-13T11:49:22.615Z,101691.86
2018-07-13T11:51:51.705Z,101687.98
2018-07-13T11:54:20.738Z,101684.64
2018-07-13T11:56:49.845Z,101673.61
2018-07-13T11:59:18.868Z,101671.00
2018-07-13T12:01:47.917Z,101675.59
2018-07-13T12:04:16.748Z,101668.25
2018-07-13T12:06:45.687Z,101665.62
2018-07-13T12:09:14.616Z,101657.92
2018-07-13T12:11:44.248Z,101666.94
2018-07-13T12:14:13.708Z,101669.09
2018-07-13T12:16:42.974Z,101664.23
2018-07-13T12:19:12.241Z,101665.17
2018-07-13T12:21:41.151Z,101664.05
2018-07-13T12:24:10.062Z,101653.46
2018-07-13T12:26:38.992Z,101646.80
2018-07-13T12:29:07.965Z,101643.02
2018-07-13T12:31:36.873Z,101641.56
2018-07-13T12:34:05.796Z,101644.23
2018-07-13T12:36:34.694Z,101649.22
2018-07-13T12:39:03.871Z,101640.80
2018-07-13T12:41:32.792Z,101636.73
2018-07-13T12:44:01.685Z,101633.61
2018-07-13T12:46:30.588Z,101637.77
2018-07-13T12:48:59.534Z,101634.15
2018-07-13T12:51:28.498Z,101632.98
2018-07-13T12:53:57.490Z,101635.41
2018-07-13T12:56:26.318Z,101626.72
2018-07-13T12:58:55.236Z,101622.72
2018-07-13T13:01:24.205Z,101628.70
2018-07-13T13:03:53.174Z,101622.78
2018-07-13T13:06:22.059Z,101627.29
2018-07-13T13:08:51.103Z,101623.05
2018-07-13T13:11:20.028Z,101622.25
2018-07-13T13:13:48.967Z,101619.69
2018-07-13T13:16:17.847Z,101617.81
2018-07-13T13:18:46.768Z,101615.05
2018-07-13T13:21:15.676Z,101613.10
2018-07-13T13:23:45.634Z,101611.22
2018-07-13T13:26:14.511Z,101607.80
2018-07-13T13:28:43.420Z,101614.88
2018-07-13T13:31:12.454Z,101609.66
2018-07-13T13:33:41.361Z,101612.64
2018-07-13T13:36:10.292Z,101605.02
2018-07-13T13:38:39.201Z,101621.19
2018-07-13T13:41:08.160Z,101606.51
2018-07-13T13:43:37.042Z,101600.97
2018-07-13T13:46:05.942Z,101605.21
2018-07-13T13:48:34.827Z,101600.47
2018-07-13T13:51:03.739Z,101601.67
2018-07-13T13:53:32.735Z,101600.12
2018-07-13T13:56:01.647Z,101597.48
2018-07-13T13:58:30.542Z,101595.95
2018-07-13T14:00:59.489Z,101597.18
2018-07-13T14:03:28.401Z,101591.71
2018-07-13T14:05:57.315Z,101591.24
2018-07-13T14:08:26.296Z,101592.23
2018-07-13T14:10:56.208Z,101592.59
2018-07-13T14:13:25.140Z,101596.82
2018-07-13T14:15:54.026Z,101588.83
2018-07-13T14:18:23.260Z,101579.79
2018-07-13T14:20:52.184Z,101584.32
2018-07-13T14:23:24.848Z,101580.19
2018-07-13T14:25:57.284Z,101578.38
2018-07-13T14:28:26.413Z,101573.03
2018-07-13T14:30:55.270Z,101576.46
2018-07-13T14:33:24.212Z,101575.34
2018-07-13T14:35:53.215Z,101575.61
2018-07-13T14:38:22.113Z,101575.20
2018-07-13T14:40:51.070Z,101574.20
2018-07-13T14:43:19.992Z,101566.23
2018-07-13T14:45:48.872Z,101564.45
2018-07-13T14:48:18.128Z,101563.16
2018-07-13T14:50:47.077Z,101563.64
2018-07-13T14:53:15.997Z,101559.20
2018-07-13T14:55:44.905Z,101552.76
2018-07-13T14:58:13.814Z,101547.02
2018-07-13T15:00:42.714Z,101552.14
2018-07-13T15:03:11.650Z,101547.19
2018-07-13T15:05:40.577Z,101544.84
2018-07-13T15:08:09.473Z,101548.48
2018-07-13T15:10:38.586Z,101549.77
2018-07-13T15:13:07.446Z,101550.05
2018-07-13T15:15:36.445Z,101541.58
2018-07-13T15:18:05.835Z,101541.58
2018-07-13T15:20:34.809Z,101541.54
2018-07-13T15:23:03.985Z,101542.70
2018-07-13T15:25:32.972Z,101544.39
2018-07-13T15:28:01.990Z,101543.19
2018-07-13T15:30:30.925Z,101546.66
2018-07-13T15:32:59.826Z,101536.92
2018-07-13T15:35:28.766Z,101531.85
2018-07-13T15:37:57.705Z,101531.80
2018-07-13T15:40:26.653Z,101535.76
2018-07-13T15:42:55.611Z,101539.19
2018-07-13T15:45:24.521Z,101532.80
2018-07-13T15:47:53.458Z,101528.22
2018-07-13T15:50:22.363Z,101528.26
2018-07-13T15:52:51.387Z,101532.25
2018-07-13T15:55:20.329Z,101530.70
2018-07-13T15:57:49.232Z,101526.69
2018-07-13T16:00:18.135Z,101528.97
2018-07-13T16:02:47.016Z,101531.69
2018-07-13T16:05:15.974Z,101530.75
2018-07-13T16:07:44.868Z,101521.91
2018-07-13T16:10:13.793Z,101521.82
2018-07-13T16:12:42.666Z,101521.82
2018-07-13T16:15:11.585Z,101520.70
2018-07-13T16:17:44.282Z,101517.99
2018-07-13T16:20:13.176Z,101521.45
2018-07-13T16:22:42.275Z,101521.77
2018-07-13T16:25:16.992Z,101515.70
2018-07-13T16:27:45.964Z,101516.20
2018-07-13T16:30:14.933Z,101514.95
2018-07-13T16:32:43.819Z,101516.69
2018-07-13T16:35:12.806Z,101511.98
2018-07-13T16:37:41.771Z,101519.70
2018-07-13T16:40:10.690Z,101508.50
2018-07-13T16:42:39.629Z,101507.89
2018-07-13T16:45:08.570Z,101509.80
2018-07-13T16:47:37.437Z,101507.19
2018-07-13T16:50:06.355Z,101503.31
2018-07-13T16:52:35.334Z,101501.59
2018-07-13T16:55:04.256Z,101508.39
2018-07-13T16:57:33.193Z,101501.77
2018-07-13T17:00:02.127Z,101503.64
2018-07-13T17:02:31.049Z,101507.94
2018-07-13T17:04:59.963Z,101502.38
2018-07-13T17:07:28.890Z,101501.09
2018-07-13T17:09:57.807Z,101498.92
2018-07-13T17:12:26.735Z,101490.89
2018-07-13T17:14:55.668Z,101494.77
2018-07-13T17:17:24.563Z,101499.18
2018-07-13T17:19:53.611Z,101499.41
2018-07-13T17:22:22.499Z,101496.69
2018-07-13T17:24:51.421Z,101487.89
2018-07-13T17:27:20.351Z,101493.98
2018-07-13T17:29:49.255Z,101488.75
2018-07-13T17:32:18.191Z,101486.88
2018-07-13T17:34:47.266Z,101490.52
2018-07-13T17:37:16.205Z,101488.83
2018-07-13T17:39:45.260Z,101489.41
2018-07-13T17:42:14.167Z,101489.18
2018-07-13T17:44:43.079Z,101484.55
2018-07-13T17:47:11.988Z,101490.38
2018-07-13T17:49:40.919Z,101493.36
2018-07-13T17:52:09.813Z,101497.27
2018-07-13T17:54:42.543Z,101489.27
2018-07-13T17:57:11.460Z,101488.42
2018-07-13T17:59:40.403Z,101484.02
2018-07-13T18:02:09.282Z,101484.37
2018-07-13T18:04:38.193Z,101485.08
2018-07-13T18:07:07.130Z,101485.16
2018-07-13T18:09:36.042Z,101482.19
2018-07-13T18:12:04.956Z,101477.20
2018-07-13T18:14:33.864Z,101479.16
2018-07-13T18:17:02.758Z,101484.01
2018-07-13T18:19:31.664Z,101479.88
2018-07-13T18:22:00.585Z,101478.93
2018-07-13T18:24:29.577Z,101472.98
2018-07-13T18:26:58.489Z,101475.19
2018-07-13T18:29:27.390Z,101477.37
2018-07-13T18:31:56.266Z,101481.43
2018-07-13T18:34:25.172Z,101473.78
2018-07-13T18:36:54.127Z,101476.50
2018-07-13T18:39:22.994Z,101472.67
2018-07-13T18:41:51.933Z,101473.93
2018-07-13T18:44:20.844Z,101475.38
2018-07-13T18:46:49.764Z,101477.09
2018-07-13T18:49:18.657Z,101476.06
2018-07-13T18:51:47.686Z,101479.42
2018-07-13T18:54:16.685Z,101473.41
2018-07-13T18:56:45.668Z,101481.47
2018-07-13T18:59:14.604Z,101480.45
2018-07-13T19:01:43.475Z,101480.52
2018-07-13T19:04:12.417Z,101485.55
2018-07-13T19:06:41.353Z,101487.26
2018-07-13T19:09:10.562Z,101487.08
2018-07-13T19:11:39.743Z,101483.82
2018-07-13T19:14:08.695Z,101486.93
2018-07-13T19:16:38.286Z,101486.75
2018-07-13T19:19:07.234Z,101486.23
2018-07-13T19:21:36.279Z,101490.14
2018-07-13T19:24:05.179Z,101494.61
2018-07-13T19:26:34.084Z,101496.31
2018-07-13T19:29:02.989Z,101503.80
2018-07-13T19:31:31.910Z,101504.92
2018-07-13T19:34:00.822Z,101502.51
2018-07-13T19:36:32.973Z,101511.02
2018-07-13T19:39:01.897Z,101507.22
2018-07-13T19:41:30.827Z,101512.75
2018-07-13T19:43:59.731Z,101518.90
2018-07-13T19:46:28.687Z,101519.21
2018-07-13T19:48:57.563Z,101525.25
2018-07-13T19:51:26.487Z,101527.22
2018-07-13T19:53:55.402Z,101524.48
2018-07-13T19:56:24.410Z,101521.78
2018-07-13T19:58:53.370Z,101526.41
2018-07-13T20:01:22.346Z,101533.04
2018-07-13T20:03:51.271Z,101533.09
2018-07-13T20:06:20.143Z,101530.11
2018-07-13T20:08:49.043Z,101534.48
2018-07-13T20:11:18.214Z,101540.01
2018-07-13T20:13:50.295Z,101538.41
2018-07-13T20:16:19.209Z,101549.11
2018-07-13T20:18:48.140Z,101549.42
2018-07-13T20:21:17.027Z,101545.86
2018-07-13T20:23:45.947Z,101554.11
2018-07-13T20:26:15.367Z,101553.85
2018-07-13T20:28:44.261Z,101557.99
2018-07-13T20:31:13.195Z,101557.77
2018-07-13T20:33:42.113Z,101559.97
2018-07-13T20:36:11.325Z,101563.31
2018-07-13T20:38:40.537Z,101563.86
2018-07-13T20:41:09.508Z,101565.80
2018-07-13T20:43:38.408Z,101566.59
2018-07-13T20:46:07.283Z,101566.59
2018-07-13T20:48:36.209Z,101568.54
2018-07-13T20:51:05.287Z,101569.34
2018-07-13T20:53:34.207Z,101569.05
2018-07-13T20:56:03.128Z,101567.42
2018-07-13T20:58:32.025Z,101569.34
2018-07-13T21:01:00.940Z,101569.06
2018-07-13T21:03:29.810Z,101570.70
2018-07-13T21:05:58.802Z,101570.17
2018-07-13T21:08:27.742Z,101573.70
2018-07-13T21:10:56.644Z,101575.66
2018-07-13T21:13:26.789Z,101572.09
2018-07-13T21:15:55.914Z,101576.48
2018-07-13T21:18:25.739Z,101585.23
2018-07-13T21:20:54.713Z,101581.97
2018-07-13T21:23:23.578Z,101583.88
2018-07-13T21:25:52.628Z,101587.45
2018-07-13T21:28:21.545Z,101593.48
2018-07-13T21:30:50.535Z,101591.89
2018-07-13T21:33:19.570Z,101596.53
2018-07-13T21:35:48.474Z,101596.02
2018-07-13T21:38:17.385Z,101599.84
2018-07-13T21:40:46.469Z,101597.63
2018-07-13T21:43:15.382Z,101595.16
2018-07-13T21:45:44.411Z,101593.79
2018-07-13T21:48:13.305Z,101592.43
2018-07-13T21:50:42.553Z,101599.00
2018-07-13T21:53:11.947Z,101591.62
2018-07-13T21:55:40.843Z,101596.55
2018-07-13T21:58:09.779Z,101593.28
2018-07-13T22:00:38.699Z,101598.77
2018-07-13T22:03:07.690Z,101593.55
2018-07-13T22:05:36.809Z,101598.21
2018-07-13T22:08:05.754Z,101596.28
2018-07-13T22:10:34.629Z,101597.94
2018-07-13T22:13:05.914Z,101597.66
2018-07-13T22:15:35.727Z,101594.40
2018-07-13T22:18:05.415Z,101594.93
2018-07-13T22:20:34.321Z,101592.19
2018-07-13T22:23:03.298Z,101598.23
2018-07-13T22:25:32.220Z,101606.97
2018-07-13T22:28:01.154Z,101605.08
2018-07-13T22:30:30.259Z,101610.55
2018-07-13T22:32:59.289Z,101614.38
2018-07-13T22:35:28.275Z,101613.28
2018-07-13T22:37:57.241Z,101612.41
2018-07-13T22:40:26.158Z,101615.18
2018-07-13T22:42:58.176Z,101616.30
2018-07-13T22:45:27.067Z,101610.78
2018-07-13T22:47:56.056Z,101610.49
2018-07-13T22:50:24.937Z,101616.48
2018-07-13T22:52:53.849Z,101616.77
2018-07-13T22:55:22.753Z,101620.86
2018-07-13T22:57:51.653Z,101618.12
2018-07-13T23:00:20.569Z,101617.84
2018-07-13T23:02:49.463Z,101626.05
2018-07-13T23:05:18.377Z,101624.66
2018-07-13T23:07:47.280Z,101626.03
2018-07-13T23:10:16.224Z,101627.95
2018-07-13T23:12:45.156Z,101626.56
2018-07-13T23:15:14.075Z,101620.27
2018-07-13T23:17:44.026Z,101625.19
2018-07-13T23:20:12.972Z,101615.59
2018-07-13T23:22:41.885Z,101619.39
2018-07-13T23:25:10.908Z,101612.57
2018-07-13T23:27:39.797Z,101617.48
2018-07-13T23:30:08.886Z,101621.56
2018-07-13T23:32:37.804Z,101618.30
2018-07-13T23:35:06.704Z,101614.16
2018-07-13T23:37:35.663Z,101622.11
2018-07-13T23:40:04.735Z,101621.52
2018-07-13T23:42:33.650Z,101617.40
2018-07-13T23:45:02.570Z,101615.95
2018-07-13T23:47:31.674Z,101619.80
2018-07-13T23:50:00.561Z,101610.22
2018-07-13T23:52:29.996Z,101614.34
2018-07-13T23:54:58.913Z,101607.73
2018-07-13T23:57:27.775Z,101606.63
2018-07-13T23:59:56.686Z,101611.55
